Time;durP1;ratioP1;P1;durP2;ratioP2;P2;SDS_P1;SDS_P2;PMS_P1;PMS_P2;Temp;Humidity;BMP_temperature;BMP_pressure;BME280_temperature;BME280_humidity;BME280_pressure;Samples;Min_cycle;Max_cycle;Signal;HPM_P1;HPM_P2
2021/06/19 00:02:06;;;;;;;5.78;1.90;;;;;;;18.65;65.42;100001.38;1725406;83;21036;-65
2021/06/19 00:04:32;;;;;;;6.22;1.70;;;;;;;18.70;65.43;100004.00;1725390;83;21050;-64
2021/06/19 00:07:00;;;;;;;7.28;1.95;;;;;;;18.75;65.21;100004.66;1725343;83;21007;-65
2021/06/19 00:09:27;;;;;;;4.67;1.85;;;;;;;18.82;64.92;100008.32;1725722;82;21035;-65
2021/06/19 00:11:53;;;;;;;;;;;;;;;18.83;64.79;100001.12;1729555;82;21027;-65
2021/06/19 00:14:20;;;;;;;4.60;1.80;;;;;;;18.83;64.88;100001.12;1690714;85;20577;-65
2021/06/19 00:16:48;;;;;;;5.25;2.20;;;;;;;18.78;64.94;100001.25;1725361;83;21118;-65
2021/06/19 00:19:14;;;;;;;4.97;1.92;;;;;;;18.85;64.88;100004.92;1730761;82;21046;-65
2021/06/19 00:21:42;;;;;;;5.80;2.45;;;;;;;18.84;64.87;100001.94;1747832;81;21078;-65
2021/06/19 00:24:10;;;;;;;3.72;1.75;;;;;;;18.77;65.01;99998.83;1747852;82;21034;-65
2021/06/19 00:26:38;;;;;;;3.75;1.82;;;;;;;18.71;65.16;99997.33;1747804;81;21070;-65
2021/06/19 00:29:04;;;;;;;4.47;1.98;;;;;;;18.69;65.23;99989.95;1746449;82;21552;-65
2021/06/19 00:31:31;;;;;;;2.95;1.90;;;;;;;18.69;65.32;99989.95;1747691;81;21108;-65
2021/06/19 00:33:58;;;;;;;5.65;1.90;;;;;;;18.65;65.49;99991.16;1748000;82;21525;-64
2021/06/19 00:36:24;;;;;;;5.60;1.90;;;;;;;18.62;65.66;99989.05;1747891;81;21159;-65
2021/06/19 00:38:50;;;;;;;3.80;2.08;;;;;;;18.53;65.94;99985.42;1728470;82;21493;-65
2021/06/19 00:41:17;;;;;;;5.05;1.85;;;;;;;18.51;66.03;99985.50;1725537;83;21134;-66
2021/06/19 00:43:43;;;;;;;;;;;;;;;18.54;66.04;99983.48;1728067;82;21078;-68
2021/06/19 00:46:10;;;;;;;4.90;1.57;;;;;;;18.54;66.02;99984.30;1690851;85;20133;-64
2021/06/19 00:48:37;;;;;;;2.95;1.62;;;;;;;18.47;66.30;99981.16;1727243;82;21502;-68
2021/06/19 00:51:03;;;;;;;;;;;;;;;18.42;66.42;99986.83;1728459;82;21070;-66
2021/06/19 00:53:32;;;;;;;4.95;1.82;;;;;;;18.39;66.65;99988.25;1725815;83;20476;-63
2021/06/19 00:56:01;;;;;;;9.53;2.60;;;;;;;18.35;66.70;99983.72;1725961;82;21071;-64
2021/06/19 00:58:27;;;;;;;8.63;2.10;;;;;;;18.33;66.81;99989.53;1748198;81;21619;-66
2021/06/19 01:00:54;;;;;;;4.87;1.92;;;;;;;18.31;66.92;99987.67;1758941;80;21101;-67
2021/06/19 01:03:20;;;;;;;5.20;1.87;;;;;;;18.22;67.19;99983.22;1761101;81;21037;-67
2021/06/19 01:05:49;;;;;;;5.45;1.62;;;;;;;18.20;67.36;99986.88;1760804;80;21077;-64
2021/06/19 01:08:15;;;;;;;5.78;2.27;;;;;;;18.23;67.42;99984.30;1735031;81;21138;-65
2021/06/19 01:10:42;;;;;;;4.22;1.82;;;;;;;18.20;67.53;99980.80;1746851;80;21135;-64
2021/06/19 01:13:09;;;;;;;5.12;1.60;;;;;;;18.17;67.58;99973.73;1733268;81;21066;-67
2021/06/19 01:15:37;;;;;;;5.97;1.75;;;;;;;18.17;67.76;99979.24;1729404;82;21581;-64
2021/06/19 01:18:04;;;;;;;;;;;;;;;18.13;67.96;99981.81;1746528;81;21005;-66
2021/06/19 01:20:36;;;;;;;6.07;2.30;;;;;;;18.05;68.17;99983.95;1732172;81;20172;-67
2021/06/19 01:23:03;;;;;;;4.17;1.87;;;;;;;18.05;68.17;99983.95;1761034;81;21487;-66
2021/06/19 01:25:32;;;;;;;4.53;1.98;;;;;;;18.08;68.29;99982.49;1760927;80;21078;-65
2021/06/19 01:28:00;;;;;;;3.12;1.40;;;;;;;18.08;68.35;99983.88;1727413;81;21514;-67
2021/06/19 01:30:29;;;;;;;4.90;1.60;;;;;;;18.07;68.47;99978.11;1725310;82;21434;-66
2021/06/19 01:32:55;;;;;;;5.78;1.70;;;;;;;17.99;68.80;99970.06;1725267;83;21070;-65
2021/06/19 01:35:22;;;;;;;3.85;1.62;;;;;;;17.98;68.97;99972.56;1725155;82;21082;-64
2021/06/19 01:37:55;;;;;;;5.28;1.92;;;;;;;18.01;69.05;99968.36;1750941;81;21019;-66
2021/06/19 01:40:26;;;;;;;3.52;1.70;;;;;;;18.04;68.93;99968.53;1760889;80;21048;-65
2021/06/19 01:42:53;;;;;;;3.90;1.70;;;;;;;17.98;69.05;99973.94;1760866;81;21002;-65
2021/06/19 01:45:24;;;;;;;3.75;1.67;;;;;;;17.94;69.14;99972.94;1760124;80;21049;-67
2021/06/19 01:49:33;;;;;;;6.33;1.70;;;;;;;18.01;69.12;99968.36;1801535;79;22904;-64
2021/06/19 01:52:01;;;;;;;5.22;1.85;;;;;;;17.90;69.32;99967.25;1730977;82;21034;-64
2021/06/19 01:54:27;;;;;;;3.85;1.50;;;;;;;17.90;69.47;99970.56;1731431;83;20975;-64
2021/06/19 01:56:54;;;;;;;3.92;1.55;;;;;;;17.90;69.47;99970.56;1732138;82;21538;-64
2021/06/19 01:59:20;;;;;;;6.03;1.80;;;;;;;17.92;69.48;99969.70;1731278;82;21042;-65
2021/06/19 02:01:46;;;;;;;;;;;;;;;17.91;69.58;99974.95;1673673;84;21544;-64
2021/06/19 02:04:12;;;;;;;3.45;1.57;;;;;;;17.90;69.68;99976.06;1660711;85;20127;-66
2021/06/19 02:06:39;;;;;;;3.15;1.30;;;;;;;17.85;69.96;99978.97;1687982;85;21087;-66
2021/06/19 02:09:08;;;;;;;4.12;1.60;;;;;;;17.85;69.98;99968.73;1687750;85;21078;-65
2021/06/19 02:11:36;;;;;;;2.75;1.50;;;;;;;17.87;69.97;99974.77;1688240;85;21059;-65
2021/06/19 02:14:04;;;;;;;4.80;1.60;;;;;;;17.88;69.98;99974.20;1687851;85;21054;-65
2021/06/19 02:16:32;;;;;;;3.40;1.40;;;;;;;17.87;70.21;99971.19;1685697;85;21090;-67
2021/06/19 02:18:58;;;;;;;3.67;1.60;;;;;;;17.88;70.25;99976.40;1689394;85;21023;-66
2021/06/19 02:21:24;;;;;;;;;;;;;;;17.94;70.16;99981.20;1693626;85;21062;-67
2021/06/19 02:23:50;;;;;;;3.95;1.40;;;;;;;17.99;70.06;99979.70;1690696;85;20111;-67
2021/06/19 02:26:17;;;;;;;;;;;;;;;18.00;70.13;99985.44;1692953;85;21058;-68
2021/06/19 02:28:43;;;;;;;4.67;1.50;;;;;;;18.06;70.02;99977.87;1690828;84;20119;-67
2021/06/19 02:31:09;;;;;;;;;;;;;;;18.06;70.10;99975.12;1693418;85;21071;-66
2021/06/19 02:33:36;;;;;;;9.78;1.52;;;;;;;18.05;70.13;99978.44;1690449;85;20131;-67
2021/06/19 02:36:04;;;;;;;5.35;1.77;;;;;;;18.03;70.26;99977.92;1685526;85;21087;-65
2021/06/19 02:38:30;;;;;;;5.50;1.75;;;;;;;18.09;70.12;99983.57;1685578;85;21247;-67
2021/06/19 02:40:57;;;;;;;3.35;1.60;;;;;;;18.16;70.02;99981.18;1685502;85;21158;-67
2021/06/19 02:43:24;;;;;;;3.92;1.30;;;;;;;18.20;69.91;99975.85;1685616;85;21146;-67
2021/06/19 02:45:50;;;;;;;5.00;1.60;;;;;;;18.24;69.91;99983.73;1685788;85;21090;-68
2021/06/19 02:48:16;;;;;;;2.47;1.50;;;;;;;18.27;69.83;99979.78;1673382;85;21045;-67
2021/06/19 02:50:43;;;;;;;;;;;;;;;18.31;69.73;99979.41;1741254;82;21046;-67
2021/06/19 02:53:11;;;;;;;4.35;1.80;;;;;;;18.33;69.73;99973.00;1736468;82;20111;-67
2021/06/19 02:55:40;;;;;;;3.08;1.20;;;;;;;18.31;69.81;99981.34;1691444;85;21015;-66
2021/06/19 02:58:08;;;;;;;3.12;1.47;;;;;;;18.39;69.71;99977.23;1693346;85;21659;-65
2021/06/19 03:00:35;;;;;;;3.25;1.30;;;;;;;18.52;69.51;99983.00;1692289;85;21031;-66
2021/06/19 03:03:01;;;;;;;4.83;1.47;;;;;;;18.65;69.22;99991.72;1692619;85;21494;-67
2021/06/19 03:05:29;;;;;;;4.87;1.47;;;;;;;18.75;68.95;99993.63;1725910;82;21094;-67
2021/06/19 03:07:57;;;;;;;4.20;1.30;;;;;;;18.79;68.70;99997.93;1725668;82;21067;-67
2021/06/19 03:10:32;;;;;;;4.58;1.40;;;;;;;18.85;68.42;99998.84;1725751;83;21114;-67
2021/06/19 03:12:58;;;;;;;5.60;1.60;;;;;;;18.98;68.13;100002.63;1731621;82;21037;-64
2021/06/19 03:15:25;;;;;;;4.92;1.65;;;;;;;19.06;67.83;99992.75;1737934;82;21070;-65
2021/06/19 03:17:52;;;;;;;3.20;1.60;;;;;;;19.11;67.77;100003.61;1738289;82;21026;-67
2021/06/19 03:20:21;;;;;;;4.42;1.37;;;;;;;19.11;67.68;99993.95;1738094;82;21090;-66
2021/06/19 03:22:59;;;;;;;3.85;1.20;;;;;;;19.13;67.67;99999.39;1737259;82;21089;-66
2021/06/19 03:25:37;;;;;;;3.58;1.65;;;;;;;19.19;67.48;99998.12;1738099;82;21608;-66
2021/06/19 03:28:04;;;;;;;6.30;1.82;;;;;;;19.27;67.25;99998.68;1735682;82;21035;-64
2021/06/19 03:30:34;;;;;;;4.87;1.55;;;;;;;19.34;67.22;99997.63;1738072;82;21073;-66
2021/06/19 03:33:00;;;;;;;3.47;1.55;;;;;;;19.37;66.95;100001.72;1727715;82;21086;-66
2021/06/19 03:35:27;;;;;;;5.83;1.37;;;;;;;19.37;66.88;100001.72;1725731;83;21047;-66
2021/06/19 03:37:54;;;;;;;3.80;1.37;;;;;;;19.41;66.96;100004.64;1725858;83;21089;-64
2021/06/19 03:40:20;;;;;;;3.37;1.40;;;;;;;19.47;66.91;100011.65;1725318;83;21051;-67
2021/06/19 03:42:50;;;;;;;5.62;1.60;;;;;;;19.51;66.55;100007.11;1726415;82;21108;-66
2021/06/19 03:45:17;;;;;;;7.62;3.42;;;;;;;19.50;66.56;100006.30;1730459;82;21121;-67
2021/06/19 03:47:44;;;;;;;5.72;2.22;;;;;;;19.50;66.60;100009.05;1738559;82;21006;-67
2021/06/19 03:50:13;;;;;;;4.90;1.60;;;;;;;19.50;66.53;100009.62;1743231;82;21069;-67
2021/06/19 03:52:39;;;;;;;3.37;1.80;;;;;;;19.52;66.50;100012.30;1731015;82;21043;-67
2021/06/19 03:55:08;;;;;;;5.47;1.50;;;;;;;19.60;66.22;100016.20;1730619;82;21083;-64
2021/06/19 03:57:36;;;;;;;10.35;1.87;;;;;;;19.62;66.36;100015.32;1731039;82;21034;-65
2021/06/19 04:00:12;;;;;;;6.35;1.60;;;;;;;19.64;66.56;100019.94;1730844;83;21580;-66
2021/06/19 04:02:39;;;;;;;5.75;1.52;;;;;;;19.72;66.23;100015.81;1695971;84;21527;-65
2021/06/19 04:05:07;;;;;;;4.03;1.25;;;;;;;19.82;66.29;100013.27;1695929;84;21105;-65
2021/06/19 04:07:33;;;;;;;7.40;1.52;;;;;;;19.89;66.09;100020.50;1696148;84;21041;-65
2021/06/19 04:10:00;;;;;;;2.98;1.25;;;;;;;19.98;66.04;100015.77;1693592;84;21059;-67
2021/06/19 04:12:27;;;;;;;5.90;1.35;;;;;;;20.12;65.73;100020.53;1662594;85;21552;-64
2021/06/19 04:14:53;;;;;;;5.92;1.57;;;;;;;20.35;65.39;100018.41;1688141;85;21071;-65
2021/06/19 04:17:20;;;;;;;4.17;1.47;;;;;;;20.57;64.26;100011.84;1687760;85;21103;-67
2021/06/19 04:19:47;;;;;;;3.47;1.20;;;;;;;20.71;63.96;100012.43;1687694;85;21525;-67
2021/06/19 04:22:14;;;;;;;6.85;1.42;;;;;;;20.81;63.34;100008.72;1658128;86;21050;-66
2021/06/19 04:24:41;;;;;;;4.55;1.37;;;;;;;20.97;63.27;100006.77;1684553;85;22119;-67
2021/06/19 04:27:17;;;;;;;8.65;1.77;;;;;;;21.07;63.11;100015.50;1685548;85;21047;-68
2021/06/19 04:29:44;;;;;;;5.22;1.37;;;;;;;21.21;62.40;100016.67;1685601;85;21079;-68
2021/06/19 04:32:11;;;;;;;3.70;1.45;;;;;;;21.34;62.31;100012.25;1686038;85;21007;-67
2021/06/19 04:34:40;;;;;;;6.00;1.50;;;;;;;21.54;61.86;100017.55;1685616;85;21111;-66
2021/06/19 04:37:07;;;;;;;4.92;1.50;;;;;;;21.72;61.70;100018.23;1685836;85;21031;-67
2021/06/19 04:39:34;;;;;;;4.12;1.60;;;;;;;21.99;61.01;100014.12;1687403;85;21023;-66
2021/06/19 04:42:05;;;;;;;5.78;1.55;;;;;;;22.34;60.53;100014.00;1691023;85;21019;-67
2021/06/19 04:45:02;;;;;;;3.65;1.80;;;;;;;22.57;58.75;100016.57;1691087;85;21617;-66
2021/06/19 04:47:12;;;;;;;4.65;1.77;;;;;;;22.59;58.15;100010.69;1686763;85;21008;-65
2021/06/19 04:49:38;;;;;;;6.15;1.40;;;;;;;22.62;58.34;100018.32;1675966;85;21653;-69
2021/06/19 04:52:05;;;;;;;4.00;1.52;;;;;;;22.72;58.36;100014.55;1600763;88;21115;-68
2021/06/19 04:54:37;;;;;;;4.30;1.22;;;;;;;22.87;57.85;100008.89;1580115;88;21063;-68
2021/06/19 04:57:01;;;;;;;5.33;1.30;;;;;;;23.03;57.94;100006.20;1624328;88;21016;-68
2021/06/19 04:59:28;;;;;;;6.62;1.40;;;;;;;23.20;57.08;100005.38;1642994;85;21020;-68
2021/06/19 05:01:54;;;;;;;3.65;1.40;;;;;;;23.22;56.52;100010.59;1678676;85;21601;-67
2021/06/19 05:04:20;;;;;;;5.10;1.40;;;;;;;23.21;56.15;100007.58;1678831;85;21059;-68
2021/06/19 05:06:48;;;;;;;5.58;1.62;;;;;;;23.23;56.37;100007.48;1678734;85;21570;-66
2021/06/19 05:09:15;;;;;;;4.22;1.50;;;;;;;23.27;56.49;100008.98;1676509;85;21051;-68
2021/06/19 05:11:41;;;;;;;5.55;1.40;;;;;;;23.38;56.41;100010.70;1678717;85;21096;-66
2021/06/19 05:14:08;;;;;;;6.47;1.50;;;;;;;23.33;55.98;100006.77;1698315;84;21080;-68
2021/06/19 05:16:36;;;;;;;5.60;1.57;;;;;;;23.21;56.16;100011.17;1697115;84;21128;-68
2021/06/19 05:19:02;;;;;;;6.53;1.67;;;;;;;23.19;56.69;100012.69;1679262;85;21034;-69
2021/06/19 05:21:29;;;;;;;6.97;1.67;;;;;;;23.22;56.66;100014.19;1679266;85;21549;-66
2021/06/19 05:23:56;;;;;;;7.37;1.72;;;;;;;23.35;56.68;100007.23;1679150;85;21086;-68
2021/06/19 05:26:23;;;;;;;4.85;1.60;;;;;;;23.49;56.54;100007.09;1679246;85;21094;-66
2021/06/19 05:28:49;;;;;;;5.95;1.40;;;;;;;23.65;56.13;99993.28;1711894;82;21050;-69
2021/06/19 05:31:16;;;;;;;6.22;1.70;;;;;;;23.86;56.59;100000.03;1716141;82;21106;-66
2021/06/19 05:33:42;;;;;;;8.50;1.80;;;;;;;24.16;55.21;99999.94;1716272;82;21038;-67
2021/06/19 05:36:09;;;;;;;4.87;1.62;;;;;;;24.25;53.91;99997.79;1715971;83;21052;-65
2021/06/19 05:38:35;;;;;;;3.12;1.40;;;;;;;24.29;53.57;99993.13;1717813;82;21063;-66
2021/06/19 05:41:02;;;;;;;3.98;1.47;;;;;;;24.37;53.50;99994.95;1722164;82;21019;-66
2021/06/19 05:43:28;;;;;;;2.87;1.47;;;;;;;24.49;53.87;100000.99;1746290;82;21034;-67
2021/06/19 05:45:54;;;;;;;3.10;1.47;;;;;;;24.62;53.46;100001.16;1746285;82;21583;-66
2021/06/19 05:48:21;;;;;;;6.50;1.60;;;;;;;24.89;53.03;99996.67;1744634;82;21030;-68
2021/06/19 05:50:47;;;;;;;6.87;1.57;;;;;;;24.89;53.03;99996.67;1732832;83;21070;-66
2021/06/19 05:53:14;;;;;;;5.12;1.32;;;;;;;24.98;52.76;100002.84;1732772;83;21037;-66
2021/06/19 05:55:42;;;;;;;5.25;1.60;;;;;;;25.10;53.21;100005.53;1732634;83;21581;-66
2021/06/19 05:58:10;;;;;;;5.17;1.70;;;;;;;25.28;52.84;100008.16;1731628;83;21477;-67
2021/06/19 06:00:37;;;;;;;5.12;1.35;;;;;;;25.52;51.85;100012.11;1713295;83;21624;-66
2021/06/19 06:03:05;;;;;;;3.75;1.50;;;;;;;25.70;51.50;100009.12;1732575;83;21078;-66
2021/06/19 06:05:31;;;;;;;5.05;1.35;;;;;;;25.86;50.16;100006.85;1730080;83;21058;-66
2021/06/19 06:07:59;;;;;;;4.35;1.42;;;;;;;25.87;49.25;100007.05;1717888;83;21051;-66
2021/06/19 06:10:28;;;;;;;7.08;1.50;;;;;;;25.70;49.21;100003.55;1717821;82;21071;-66
2021/06/19 06:12:58;;;;;;;5.67;1.42;;;;;;;25.68;49.80;100009.27;1717787;83;21037;-68
2021/06/19 06:15:25;;;;;;;7.42;1.60;;;;;;;25.71;49.50;100009.34;1717700;82;21071;-65
2021/06/19 06:17:52;;;;;;;7.05;1.72;;;;;;;25.95;49.04;100006.84;1719052;83;21441;-66
2021/06/19 06:20:18;;;;;;;7.12;1.60;;;;;;;25.95;49.04;100006.84;1723642;83;21077;-67
2021/06/19 06:22:45;;;;;;;6.33;1.42;;;;;;;26.11;49.00;100010.34;1733066;83;20990;-66
2021/06/19 06:25:12;;;;;;;5.15;1.30;;;;;;;26.22;49.34;100015.57;1732499;83;21086;-68
2021/06/19 06:27:39;;;;;;;5.17;1.30;;;;;;;26.32;48.35;100007.79;1732935;83;21018;-67
2021/06/19 06:30:07;;;;;;;6.33;1.72;;;;;;;26.35;47.83;100009.83;1732687;83;21047;-67
2021/06/19 06:32:34;;;;;;;7.25;1.60;;;;;;;26.42;48.31;100012.75;1732873;83;21002;-67
2021/06/19 06:35:01;;;;;;;5.95;1.60;;;;;;;26.59;48.95;100008.88;1731534;83;21027;-66
2021/06/19 06:37:29;;;;;;;4.47;1.45;;;;;;;26.76;48.31;100014.55;1732785;83;21050;-67
2021/06/19 06:39:55;;;;;;;6.37;1.45;;;;;;;26.71;47.39;100010.69;1731142;83;21074;-67
2021/06/19 06:42:22;;;;;;;3.98;1.22;;;;;;;26.65;47.43;100014.36;1718243;82;20991;-67
2021/06/19 06:44:48;;;;;;;5.05;1.35;;;;;;;26.66;47.35;100013.20;1718043;83;21074;-67
2021/06/19 06:47:14;;;;;;;6.90;1.50;;;;;;;26.79;46.91;100011.59;1719254;83;21020;-67
2021/06/19 06:49:41;;;;;;;5.85;1.17;;;;;;;26.83;46.99;100010.51;1717889;83;21127;-66
2021/06/19 06:52:07;;;;;;;5.47;1.40;;;;;;;26.86;46.98;100004.76;1718175;82;21451;-67
2021/06/19 06:54:38;;;;;;;5.80;1.57;;;;;;;26.91;47.22;100010.84;1720544;82;21019;-65
2021/06/19 06:57:02;;;;;;;5.72;1.50;;;;;;;27.03;47.22;100010.63;1732826;82;20968;-68
2021/06/19 06:59:28;;;;;;;4.42;1.30;;;;;;;27.09;46.24;100005.55;1738882;82;21050;-66
2021/06/19 07:01:57;;;;;;;5.83;1.55;;;;;;;27.16;46.30;100009.84;1732795;83;21113;-67
2021/06/19 07:04:23;;;;;;;3.40;1.10;;;;;;;27.17;46.19;100009.45;1733017;83;21460;-67
2021/06/19 07:06:50;;;;;;;7.92;1.90;;;;;;;27.17;46.49;100007.27;1731686;83;21396;-67
2021/06/19 07:09:16;;;;;;;6.95;1.52;;;;;;;27.20;46.16;99997.55;1732735;83;21034;-66
2021/06/19 07:11:43;;;;;;;5.85;1.60;;;;;;;27.20;46.07;100004.53;1732937;83;21126;-67
2021/06/19 07:14:09;;;;;;;4.05;1.10;;;;;;;27.18;45.56;100004.67;1727583;83;21023;-64
2021/06/19 07:16:36;;;;;;;4.75;1.60;;;;;;;27.09;47.06;100004.95;1717976;83;21415;-68
2021/06/19 07:19:03;;;;;;;2.92;1.30;;;;;;;27.15;45.89;100009.62;1717901;83;21118;-67
2021/06/19 07:21:30;;;;;;;6.72;1.95;;;;;;;27.27;46.07;100004.41;1717862;82;21047;-64
2021/06/19 07:23:57;;;;;;;5.55;1.40;;;;;;;27.40;45.22;100001.59;1718830;83;21078;-67
2021/06/19 07:26:23;;;;;;;5.47;1.60;;;;;;;27.42;45.78;100004.84;1690200;83;21028;-67
2021/06/19 07:28:50;;;;;;;5.25;1.50;;;;;;;27.40;46.01;100001.02;1688971;85;21118;-67
2021/06/19 07:31:16;;;;;;;7.20;1.75;;;;;;;27.41;46.38;100008.22;1689161;84;21562;-66
2021/06/19 07:33:43;;;;;;;4.03;1.50;;;;;;;27.44;45.98;100001.06;1717976;83;20994;-67
2021/06/19 07:36:10;;;;;;;4.95;1.60;;;;;;;27.57;46.01;100004.67;1732929;83;21037;-65
2021/06/19 07:38:37;;;;;;;8.00;1.40;;;;;;;27.76;46.41;100009.91;1732685;83;21031;-65
2021/06/19 07:41:04;;;;;;;4.85;1.70;;;;;;;27.85;45.39;100004.22;1732582;83;21075;-66
2021/06/19 07:43:31;;;;;;;6.42;1.62;;;;;;;27.80;45.28;100003.17;1731503;83;21061;-66
2021/06/19 07:45:58;;;;;;;6.85;1.90;;;;;;;27.74;45.56;100005.30;1732651;83;21142;-65
2021/06/19 07:48:24;;;;;;;5.62;1.70;;;;;;;27.77;44.88;100009.54;1732587;83;21010;-68
2021/06/19 07:50:51;;;;;;;7.60;1.92;;;;;;;27.82;44.84;100007.78;1733017;82;21707;-66
2021/06/19 07:53:18;;;;;;;7.22;1.55;;;;;;;27.91;45.43;100009.71;1732539;83;21027;-64
2021/06/19 07:55:44;;;;;;;4.40;1.67;;;;;;;27.90;44.37;100001.69;1738691;82;21604;-63
2021/06/19 07:58:11;;;;;;;4.75;1.60;;;;;;;27.75;45.22;99997.09;1732759;83;21042;-66
2021/06/19 08:00:37;;;;;;;11.08;2.20;;;;;;;27.76;45.68;99995.92;1732854;83;21513;-63
2021/06/19 08:03:04;;;;;;;7.53;2.05;;;;;;;27.86;46.05;99991.86;1726744;83;21564;-65
2021/06/19 08:05:31;;;;;;;5.70;1.95;;;;;;;27.97;45.47;100001.77;1662704;85;21050;-65
2021/06/19 08:07:57;;;;;;;4.30;1.70;;;;;;;28.03;45.59;99994.05;1683192;85;21529;-67
2021/06/19 08:10:26;;;;;;;7.65;1.82;;;;;;;28.04;45.12;99997.06;1683114;85;21071;-67
2021/06/19 08:12:54;;;;;;;5.75;1.98;;;;;;;28.05;45.03;99982.48;1682748;85;21048;-65
2021/06/19 08:15:21;;;;;;;4.55;1.60;;;;;;;28.03;45.25;99986.24;1679046;85;21470;-65
2021/06/19 08:17:47;;;;;;;8.30;1.90;;;;;;;28.05;45.61;99985.28;1732959;83;21011;-66
2021/06/19 08:20:14;;;;;;;6.28;2.00;;;;;;;28.15;45.52;99984.03;1732716;83;21098;-65
2021/06/19 08:22:40;;;;;;;5.40;2.00;;;;;;;28.25;45.34;99982.53;1723682;83;21521;-65
2021/06/19 08:25:09;;;;;;;6.60;1.65;;;;;;;28.28;45.33;99978.14;1717720;83;21075;-67
2021/06/19 08:27:35;;;;;;;7.22;2.02;;;;;;;28.34;45.64;99971.80;1717912;83;21008;-66
2021/06/19 08:30:05;;;;;;;7.03;2.15;;;;;;;28.44;44.70;99976.73;1717660;83;21578;-66
2021/06/19 08:32:32;;;;;;;5.35;2.00;;;;;;;28.47;45.55;99970.95;1718915;83;21510;-66
2021/06/19 08:34:58;;;;;;;8.05;1.80;;;;;;;28.49;45.30;99979.75;1718050;82;21102;-65
2021/06/19 08:37:25;;;;;;;7.37;2.20;;;;;;;28.56;45.39;99976.42;1717863;83;21074;-67
2021/06/19 08:39:52;;;;;;;7.83;2.27;;;;;;;28.57;44.40;99970.23;1717844;82;21144;-65
2021/06/19 08:42:18;;;;;;;7.87;1.98;;;;;;;28.44;45.71;99971.72;1731572;82;20998;-66
2021/06/19 08:44:45;;;;;;;6.08;2.08;;;;;;;28.39;45.55;99966.46;1732509;83;21652;-65
2021/06/19 08:47:12;;;;;;;7.80;2.75;;;;;;;28.36;45.56;99966.64;1733196;83;20960;-63
2021/06/19 08:53:41;;;;;;;;;;;;;;;28.69;45.49;99955.97;1804093;79;23556;-64
2021/06/19 08:56:07;;;;;;;5.08;2.67;;;;;;;28.72;44.24;99952.98;1755958;81;20114;-65
2021/06/19 08:58:33;;;;;;;8.98;3.10;;;;;;;28.68;44.29;99968.36;1752900;82;21062;-64
2021/06/19 09:01:00;;;;;;;4.78;2.58;;;;;;;28.68;44.57;99967.55;1744464;82;21027;-66
2021/06/19 09:03:27;;;;;;;5.40;2.70;;;;;;;28.62;43.97;99951.69;1678760;85;21957;-67
2021/06/19 09:06:14;;;;;;;8.08;2.90;;;;;;;28.64;43.75;99964.69;1684179;85;21054;-66
2021/06/19 09:09:06;;;;;;;5.65;2.50;;;;;;;28.56;43.77;99963.82;1683670;85;21086;-66
2021/06/19 09:11:36;;;;;;;7.75;2.70;;;;;;;28.58;45.07;99962.05;1683629;85;21110;-66
2021/06/19 09:14:09;;;;;;;7.15;2.70;;;;;;;28.70;44.50;99958.19;1684146;85;21035;-67
2021/06/19 09:16:37;;;;;;;5.70;2.80;;;;;;;28.71;44.23;99954.98;1683661;85;21549;-65
2021/06/19 09:19:27;;;;;;;6.47;2.65;;;;;;;28.72;45.01;99958.59;1683783;85;21026;-66
2021/06/19 09:22:22;;;;;;;8.65;2.83;;;;;;;28.75;44.25;99950.21;1711981;84;21109;-65
2021/06/19 09:24:56;;;;;;;6.75;2.65;;;;;;;28.91;44.95;99945.73;1712273;84;21046;-64
2021/06/19 09:27:46;;;;;;;8.25;2.50;;;;;;;28.96;43.70;99943.36;1712374;84;21046;-65
2021/06/19 09:30:18;;;;;;;5.25;2.55;;;;;;;28.84;43.86;99948.48;1687218;84;21608;-66
2021/06/19 09:32:51;;;;;;;7.25;2.37;;;;;;;28.83;44.44;99942.08;1650257;85;21058;-65
2021/06/19 09:35:25;;;;;;;3.40;2.22;;;;;;;28.99;43.77;99948.77;1680455;85;21054;-65
2021/06/19 09:37:57;;;;;;;7.45;2.55;;;;;;;29.10;43.57;99946.25;1684348;85;21042;-66
2021/06/19 09:40:40;;;;;;;7.78;2.15;;;;;;;29.27;42.93;99952.38;1705244;84;21153;-66
2021/06/19 09:43:17;;;;;;;4.50;2.00;;;;;;;29.39;42.83;99936.62;1712480;83;21134;-66
2021/06/19 09:46:08;;;;;;;5.60;2.22;;;;;;;29.38;40.75;99937.81;1714282;83;21147;-65
2021/06/19 09:48:39;;;;;;;5.55;2.25;;;;;;;29.37;41.03;99940.44;1694543;83;21079;-65
2021/06/19 09:51:19;;;;;;;4.45;2.00;;;;;;;29.44;41.54;99937.05;1678569;85;21135;-66
2021/06/19 09:53:53;;;;;;;8.05;2.30;;;;;;;29.57;42.34;99926.30;1695311;84;21072;-66
2021/06/19 09:56:22;;;;;;;6.10;2.90;;;;;;;29.64;42.34;99934.74;1696380;84;21042;-63
2021/06/19 09:58:53;;;;;;;7.40;2.15;;;;;;;29.64;42.12;99937.55;1698358;83;21001;-65
2021/06/19 10:01:37;;;;;;;9.03;2.05;;;;;;;29.55;43.11;99932.29;1696540;84;21078;-67
2021/06/19 10:04:04;;;;;;;8.85;2.25;;;;;;;29.54;42.77;99932.70;1662834;85;21678;-66
2021/06/19 10:06:31;;;;;;;4.80;2.02;;;;;;;29.58;42.64;99919.50;1686718;84;21039;-66
2021/06/19 10:08:58;;;;;;;7.92;2.20;;;;;;;29.69;42.11;99926.55;1706276;84;21584;-65
2021/06/19 10:11:30;;;;;;;6.83;1.80;;;;;;;29.61;41.94;99920.11;1724775;83;21053;-66
2021/06/19 10:13:57;;;;;;;5.87;1.98;;;;;;;29.47;42.02;99918.64;1694386;84;21559;-65
2021/06/19 10:16:25;;;;;;;4.70;1.72;;;;;;;29.43;42.22;99913.02;1693733;84;21069;-65
2021/06/19 10:18:52;;;;;;;6.85;2.00;;;;;;;29.49;42.65;99919.85;1695876;84;21536;-66
2021/06/19 10:21:21;;;;;;;7.22;1.90;;;;;;;29.53;41.76;99911.45;1695633;84;21527;-66
2021/06/19 10:23:49;;;;;;;10.25;2.30;;;;;;;29.51;42.21;99916.67;1695963;84;21101;-66
2021/06/19 10:26:21;;;;;;;4.62;1.80;;;;;;;29.55;42.15;99913.25;1679574;84;21594;-63
2021/06/19 10:28:47;;;;;;;7.35;2.10;;;;;;;29.57;40.69;99912.27;1687359;84;21055;-63
2021/06/19 10:31:17;;;;;;;5.00;2.20;;;;;;;29.55;41.09;99917.45;1683661;84;21096;-62
2021/06/19 10:33:43;;;;;;;5.83;1.85;;;;;;;29.45;41.16;99908.41;1666841;84;21053;-62
2021/06/19 10:36:10;;;;;;;4.12;1.80;;;;;;;29.27;41.66;99907.52;1676845;84;21135;-64
2021/06/19 10:38:55;;;;;;;6.95;1.80;;;;;;;29.06;42.02;99914.59;1695909;84;21524;-64
2021/06/19 10:41:44;;;;;;;5.17;1.75;;;;;;;28.89;41.93;99904.09;1696083;84;21018;-63
2021/06/19 10:44:10;;;;;;;10.20;2.60;;;;;;;28.81;42.43;99910.02;1638511;87;21008;-62
2021/06/19 10:46:38;;;;;;;6.40;2.65;;;;;;;28.86;42.59;99910.47;1743146;81;21070;-66
2021/06/19 10:49:26;;;;;;;2.77;1.50;;;;;;;28.87;42.18;99906.48;1760852;81;21073;-61
2021/06/19 10:52:22;;;;;;;8.53;1.80;;;;;;;28.78;42.47;99904.61;1760200;81;21984;-65
2021/06/19 10:55:14;;;;;;;4.42;1.67;;;;;;;28.76;42.92;99904.80;1737098;82;21501;-66
2021/06/19 10:57:54;;;;;;;6.60;2.10;;;;;;;28.93;43.17;99907.72;1718977;82;21095;-62
2021/06/19 11:00:56;;;;;;;5.17;1.80;;;;;;;29.12;43.10;99903.83;1738679;82;21043;-63
2021/06/19 11:03:43;;;;;;;9.05;1.50;;;;;;;29.32;42.40;99907.96;1733758;82;21550;-63
2021/06/19 11:06:24;;;;;;;7.30;1.55;;;;;;;29.41;41.28;99907.58;1709594;84;21016;-62
2021/06/19 11:09:18;;;;;;;7.58;1.90;;;;;;;29.35;41.99;99913.38;1709602;84;21067;-62
2021/06/19 11:11:54;;;;;;;4.85;1.40;;;;;;;29.26;42.30;99910.95;1709569;83;21087;-61
2021/06/19 11:14:46;;;;;;;4.55;1.70;;;;;;;29.15;42.20;99907.25;1712156;82;21048;-61
2021/06/19 11:17:33;;;;;;;9.25;1.95;;;;;;;29.11;41.79;99907.23;1719253;82;21043;-62
2021/06/19 11:20:09;;;;;;;5.62;1.85;;;;;;;29.03;41.60;99904.17;1710062;82;21075;-60
2021/06/19 11:22:43;;;;;;;6.55;1.80;;;;;;;28.96;43.11;99895.72;1689389;84;21062;-61
2021/06/19 11:25:27;;;;;;;6.30;1.60;;;;;;;28.92;42.92;99901.90;1641490;86;21074;-62
2021/06/19 11:28:01;;;;;;;12.18;2.45;;;;;;;28.82;42.23;99901.23;1709855;82;21063;-63
2021/06/19 11:30:42;;;;;;;9.98;1.82;;;;;;;28.65;42.26;99901.30;1663834;85;21168;-65
2021/06/19 11:33:34;;;;;;;4.65;1.52;;;;;;;28.59;42.41;99901.43;1713973;82;21076;-61
2021/06/19 11:36:09;;;;;;;7.40;1.40;;;;;;;28.72;43.61;99913.77;1739315;82;21048;-61
2021/06/19 11:38:52;;;;;;;14.20;2.13;;;;;;;28.79;42.09;99906.22;1739272;82;21040;-65
2021/06/19 11:41:23;;;;;;;5.75;1.37;;;;;;;28.73;41.68;99908.38;1739096;82;21129;-62
2021/06/19 11:43:49;;;;;;;7.60;1.40;;;;;;;28.59;41.48;99916.83;1728547;82;20991;-64
2021/06/19 11:46:23;;;;;;;6.10;1.50;;;;;;;28.43;42.64;99906.52;1739064;82;21012;-63
2021/06/19 11:48:57;;;;;;;8.10;1.90;;;;;;;28.37;42.81;99899.67;1739273;82;21526;-61